This is the latest recevied weather packets stored in our database for station/object EW2905. If no packets are shown the sender has not sent any weather packets the latest 10 day(s).
| Time | Temp. | Humidity | Pressure | Rain* | Wind** | Luminosity | Snow |
|---|---|---|---|---|---|---|---|
| 1777818996 | 22.78° C | 41% | 1021.4 hPa | 0 mm | - | - | - |
| 1777818816 | 23.33° C | 39% | 1021.4 hPa | 0 mm | - | - | - |
| 1777818636 | 23.33° C | 39% | 1021.4 hPa | 0 mm | - | - | - |
| 1777818456 | 23.33° C | 39% | 1021.4 hPa | 0 mm | - | - | - |
| 1777818277 | 23.33° C | 39% | 1021.4 hPa | 0 mm | - | - | - |
| 1777817736 | 23.33° C | 42% | 1021.4 hPa | 0 mm | - | - | - |
| 1777817557 | 23.33° C | 40% | 1021.4 hPa | 0 mm | - | - | - |
| 1777817376 | 23.89° C | 40% | 1021.4 hPa | 0 mm | - | - | - |
| 1777817196 | 23.89° C | 40% | 1021.4 hPa | 0 mm | - | - | - |
| 1777816836 | 23.89° C | 38% | 1021.4 hPa | 0 mm | - | - | - |
| 1777816295 | 23.89° C | 39% | 1021.4 hPa | 0 mm | - | - | - |
| 1777816114 | 23.89° C | 39% | 1021.4 hPa | 0 mm | - | - | - |
| 1777815214 | 23.89° C | 39% | 1021.4 hPa | 0 mm | - | - | - |
| 1777815035 | 23.89° C | 39% | 1021.4 hPa | 0 mm | - | - | - |
| 1777814855 | 23.89° C | 42% | 1021.4 hPa | 0 mm | - | - | - |
| 1777814675 | 23.89° C | 38% | 1021.4 hPa | 0 mm | - | - | - |
| 1777814495 | 23.89° C | 39% | 1021.4 hPa | 0 mm | - | - | - |
| 1777814315 | 23.89° C | 40% | 1021.4 hPa | 0 mm | - | - | - |
| 1777814135 | 23.89° C | 38% | 1021.4 hPa | 0 mm | - | - | - |
| 1777813955 | 24.44° C | 39% | 1021.4 hPa | 0 mm | - | - | - |
| 1777813775 | 23.89° C | 39% | 1021.4 hPa | 0 mm | - | - | - |
| 1777813595 | 23.89° C | 39% | 1021.4 hPa | 0 mm | - | - | - |
| 1777810894 | 23.89° C | 37% | 1021.4 hPa | 0 mm | - | - | - |
| 1777796856 | 18.33° C | 49% | 1021.4 hPa | 0 mm | - | - | - |
| 1777794876 | 15° C | 55% | 1021.4 hPa | 0 mm | - | - | - |
* Rain latest hour (hover to see other rain measurements)
** Current wind speed in m/s (hover to see current wind gust speed)